Istanbul, Turkey

11:40 AM EEST on July 31, 2016 (GMT +0300)
Ataköy 2-5-6 Mh. | | Change Station

Elev 29 ft 40.98 °N, 28.86 °E | Updated 3 minutes ago

Clear
Clear
88.5 °F
Feels Like 92 °F
N
4.3
Wind Variable Wind from NNE
Gusts 14.9 mph

Today
High -- | Low -- °F
--% Chance of Precip.
Yesterday
High -- | Low -- °F
Precip. -- in
Pressure 29.95 in
Visibility -9999.0 miles
Clouds
Heat Index 92 °F
Dew Point 68 °F
Humidity 51%
Rainfall 0.00 in
Snow Depth Not available.
6:00 AM 8:21 PM
Waning Crescent, 8% visible
SPECI LTBU 310835Z 01013G23KT 340V060 CAVOK 31/17 Q1014 RMK RWY23 04012KT 010V070
Pressure 29.95 in
Visibility -9999.0 miles
Clouds
Heat Index 92 °F
Dew Point 68 °F
Humidity 51%
Rainfall 0.00 in
Snow Depth Not available.
6:00 AM 8:21 PM
Waning Crescent, 8% visible
SPECI LTBU 310835Z 01013G23KT 340V060 CAVOK 31/17 Q1014 RMK RWY23 04012KT 010V070

10-Day Weather Forecast

×

Almanac

Astronomy

Jul. 31, 2016 Rise Set
Actual Time
Civil Twilight
Nautical Twilight
Astronomical Twilight
Moon
Length of Visible Light
Length of Day
Tomorrow will be .
, % of the Moon is Illuminated

Today's Extremes

Country Highs Country Lows

Community

WunderPhotos

Upload Photos

1,928,768 photos uploaded!

WunderBlog® & News

Nearby

Air Quality

  Air Quality AQ Index Pollutant
Not available.

Snow Depth

Station Depth Elevation

Earthquake Activity

City Distance Mag. Time & Date
Minimum magnitude displayed is 2.5.

Coastal Water Temperatures

Place Temperature

Stations

Nearby Weather Stations

Station Location Temp. Windchill Dew Point Humidity Wind Precip. Elev Updated Type